An Jin Shan — BRQH — position and weather

sailwx.info

Track history (hours):
 
Tides and Currents Weather Stations Pressure Air Temp Water Temp Dewpoint Dewpoint Depression Visibility Wind Speed Wind Dir Waves Ship Positions

An Jin Shan

Last reported at 2017-Dec-10 07:52 UTC. Time now 2017-Dec-14 13:09 UTC.
Position N 31°58' E 120°19'.

Length 199 m; draft 7.1 m.

Type: Cargo ship. MMSI: 413189000.

Date/timePositionNaut miles runAvg speedWind from/ knotsBaromVisibWave heightAir tempDewpointWater temp
2017-Dec-10 07:52N 31°58' E 120°19'3 8.4
2017-Dec-10 07:27N 32°00' E 120°22'3 7.8
2017-Dec-10 07:00N 32°02' E 120°26'4 7.5
2017-Dec-10 06:30N 32°02' E 120°30'4 8.3
2017-Dec-10 05:59N 32°00' E 120°35'66 8.1
2017-Dec-09 21:52N 31°22' E 121°38'4 9.8
2017-Dec-09 21:30N 31°20' E 121°41'5 9.1
2017-Dec-09 21:00N 31°18' E 121°46'5 9.2
2017-Dec-09 20:30N 31°16' E 121°51'510.6
2017-Dec-09 20:00N 31°15' E 121°57'510.6
2017-Dec-09 19:30N 31°14' E 122°03'5 8.7
2017-Dec-09 18:55N 31°12' E 122°09'510.0
2017-Dec-09 18:27N 31°09' E 122°13'410.0
2017-Dec-09 18:00N 31°07' E 122°17'  
Track history (hours):
 
Tides and Currents Weather Stations Pressure Air Temp Water Temp Dewpoint Dewpoint Depression Visibility Wind Speed Wind Dir Waves Ship Positions

An Jin Shan

Last reported at 2017-Dec-10 07:52 UTC. Time now 2017-Dec-14 13:09 UTC.
Position N 31°58' E 120°19'.

Length 199 m; draft 7.1 m.

Type: Cargo ship. MMSI: 413189000.

Date/timePositionNaut miles runAvg speedWind from/ knotsBaromVisibWave heightAir tempDewpointWater temp
2017-Dec-10 07:52N 31°58' E 120°19'3 8.4
2017-Dec-10 07:27N 32°00' E 120°22'3 7.8
2017-Dec-10 07:00N 32°02' E 120°26'4 7.5
2017-Dec-10 06:30N 32°02' E 120°30'4 8.3
2017-Dec-10 05:59N 32°00' E 120°35'66 8.1
2017-Dec-09 21:52N 31°22' E 121°38'4 9.8
2017-Dec-09 21:30N 31°20' E 121°41'5 9.1
2017-Dec-09 21:00N 31°18' E 121°46'5 9.2
2017-Dec-09 20:30N 31°16' E 121°51'510.6
2017-Dec-09 20:00N 31°15' E 121°57'510.6
2017-Dec-09 19:30N 31°14' E 122°03'5 8.7
2017-Dec-09 18:55N 31°12' E 122°09'510.0
2017-Dec-09 18:27N 31°09' E 122°13'410.0
2017-Dec-09 18:00N 31°07' E 122°17'  

Dump ship's entire track history